sensor_id;sensor_type;location;lat;lon;timestamp;P1;P2;P0
61879;PMS7003;47817;52.798;27.544;2022-11-15T00:04:29;0.6;0.2;0.2
61879;PMS7003;47817;52.798;27.544;2022-11-15T00:09:27;1.4;0.2;0
61879;PMS7003;47817;52.798;27.544;2022-11-15T00:14:15;0.8;0.8;0.4
61879;PMS7003;47817;52.798;27.544;2022-11-15T00:19:43;1;0.4;0.2
61879;PMS7003;47817;52.798;27.544;2022-11-15T00:24:05;1.4;0.4;0
61879;PMS7003;47817;52.798;27.544;2022-11-15T00:29:43;1.4;0.4;0.2
61879;PMS7003;47817;52.798;27.544;2022-11-15T00:34:13;2.8;2.6;1.6
61879;PMS7003;47817;52.798;27.544;2022-11-15T00:39:43;8;6.5;4.8
61879;PMS7003;47817;52.798;27.544;2022-11-15T00:44:15;6.6;3.8;3
61879;PMS7003;47817;52.798;27.544;2022-11-15T00:49:01;2.8;2.6;1.8
61879;PMS7003;47817;52.798;27.544;2022-11-15T00:54:17;2.4;1.4;1
61879;PMS7003;47817;52.798;27.544;2022-11-15T00:59:17;1.8;1;0.8
61879;PMS7003;47817;52.798;27.544;2022-11-15T01:04:43;1;0.2;0
61879;PMS7003;47817;52.798;27.544;2022-11-15T01:09:41;0.4;0;0
61879;PMS7003;47817;52.798;27.544;2022-11-15T01:13:59;0.4;0.2;0
61879;PMS7003;47817;52.798;27.544;2022-11-15T01:19:31;0.8;0;0
61879;PMS7003;47817;52.798;27.544;2022-11-15T01:24:29;1;0.2;0
61879;PMS7003;47817;52.798;27.544;2022-11-15T01:29:19;0.6;0;0
61879;PMS7003;47817;52.798;27.544;2022-11-15T01:34:47;1;0;0
61879;PMS7003;47817;52.798;27.544;2022-11-15T01:39:09;0.8;0;0
61879;PMS7003;47817;52.798;27.544;2022-11-15T01:44:47;1;0;0
61879;PMS7003;47817;52.798;27.544;2022-11-15T01:49:11;0.4;0.2;0
61879;PMS7003;47817;52.798;27.544;2022-11-15T01:54:45;0;0;0
61879;PMS7003;47817;52.798;27.544;2022-11-15T01:59:19;0.2;0;0
61879;PMS7003;47817;52.798;27.544;2022-11-15T02:03:59;0.2;0;0
61879;PMS7003;47817;52.798;27.544;2022-11-15T02:09:21;0.4;0;0
61879;PMS7003;47817;52.798;27.544;2022-11-15T02:14:31;1.2;0.4;0.2
61879;PMS7003;47817;52.798;27.544;2022-11-15T02:19:53;0.6;0.2;0.2
61879;PMS7003;47817;52.798;27.544;2022-11-15T02:29:00;0.4;0;0
61879;PMS7003;47817;52.798;27.544;2022-11-15T02:34:36;0;0;0
61879;PMS7003;47817;52.798;27.544;2022-11-15T02:39:32;0.2;0.2;0
61879;PMS7003;47817;52.798;27.544;2022-11-15T02:44:12;0.3;0;0
61879;PMS7003;47817;52.798;27.544;2022-11-15T02:49:47;1.2;0.6;0.4
61879;PMS7003;47817;52.798;27.544;2022-11-15T02:53:59;0.6;0;0
61879;PMS7003;47817;52.798;27.544;2022-11-15T02:59:50;0.4;0.2;0.2
61879;PMS7003;47817;52.798;27.544;2022-11-15T03:04:09;0.2;0.2;0
61879;PMS7003;47817;52.798;27.544;2022-11-15T03:09:21;0.6;0.2;0.2
61879;PMS7003;47817;52.798;27.544;2022-11-15T03:14:21;1;0.6;0.4
61879;PMS7003;47817;52.798;27.544;2022-11-15T03:18:59;1.8;1;1
61879;PMS7003;47817;52.798;27.544;2022-11-15T03:24:21;1.4;1.4;1.2
61879;PMS7003;47817;52.798;27.544;2022-11-15T03:29:31;0.8;0.4;0.4
61879;PMS7003;47817;52.798;27.544;2022-11-15T03:34:20;1.5;0.8;0.8
61879;PMS7003;47817;52.798;27.544;2022-11-15T03:39:47;1;0.6;0.2
61879;PMS7003;47817;52.798;27.544;2022-11-15T03:44:23;0.6;0;0
61879;PMS7003;47817;52.798;27.544;2022-11-15T03:49:46;1.2;0.8;0.6
61879;PMS7003;47817;52.798;27.544;2022-11-15T03:54:31;0.8;0.6;0.4
61879;PMS7003;47817;52.798;27.544;2022-11-15T03:59:31;1.2;0.8;0.6
61879;PMS7003;47817;52.798;27.544;2022-11-15T04:04:35;1.3;1.3;1.3
61879;PMS7003;47817;52.798;27.544;2022-11-15T04:08:59;1.4;1.2;0.8
61879;PMS7003;47817;52.798;27.544;2022-11-15T04:14:47;2;1;0.6
61879;PMS7003;47817;52.798;27.544;2022-11-15T04:19:17;1.8;1.6;0.8
61879;PMS7003;47817;52.798;27.544;2022-11-15T04:24:29;3.2;2.4;1.4
61879;PMS7003;47817;52.798;27.544;2022-11-15T04:28:59;7;5.6;4.6
61879;PMS7003;47817;52.798;27.544;2022-11-15T04:33:59;22.8;15;10
61879;PMS7003;47817;52.798;27.544;2022-11-15T04:39:09;6.6;5.6;3.8
61879;PMS7003;47817;52.798;27.544;2022-11-15T04:44:33;5;3.4;2.6
61879;PMS7003;47817;52.798;27.544;2022-11-15T04:49:09;4.3;3.3;2.3
61879;PMS7003;47817;52.798;27.544;2022-11-15T04:54:43;3.2;1.8;1.4
61879;PMS7003;47817;52.798;27.544;2022-11-15T04:59:09;4.2;3.4;2.4
61879;PMS7003;47817;52.798;27.544;2022-11-15T05:04:45;3.8;2.4;1.6
61879;PMS7003;47817;52.798;27.544;2022-11-15T05:09:33;6.6;4.6;3
61879;PMS7003;47817;52.798;27.544;2022-11-15T05:14:31;2.8;1.5;1.5
61879;PMS7003;47817;52.798;27.544;2022-11-15T05:19:45;2.2;1.2;0.8
61879;PMS7003;47817;52.798;27.544;2022-11-15T05:24:33;2.4;2.2;1.8
61879;PMS7003;47817;52.798;27.544;2022-11-15T05:29:45;2.4;2;1.8
61879;PMS7003;47817;52.798;27.544;2022-11-15T05:33:59;8.4;6.6;5
61879;PMS7003;47817;52.798;27.544;2022-11-15T05:39:33;5.8;4.4;3.4
61879;PMS7003;47817;52.798;27.544;2022-11-15T05:44:21;6.8;5.4;4.2
61879;PMS7003;47817;52.798;27.544;2022-11-15T05:49:10;7.8;6;5
61879;PMS7003;47817;52.798;27.544;2022-11-15T05:54:21;11.3;8.5;5.8
61879;PMS7003;47817;52.798;27.544;2022-11-15T05:59:45;8.6;7.4;5
61879;PMS7003;47817;52.798;27.544;2022-11-15T06:04:19;6.4;5.6;4.8
61879;PMS7003;47817;52.798;27.544;2022-11-15T06:09:47;7;5.6;4
61879;PMS7003;47817;52.798;27.544;2022-11-15T06:13:59;5.4;3.8;3.2
61879;PMS7003;47817;52.798;27.544;2022-11-15T06:19:47;7.2;5.8;4.8
61879;PMS7003;47817;52.798;27.544;2022-11-15T06:24:33;5;5;4.2
61879;PMS7003;47817;52.798;27.544;2022-11-15T06:29:29;7.6;5.8;4.4
61879;PMS7003;47817;52.798;27.544;2022-11-15T06:34:33;6.8;5.2;4
61879;PMS7003;47817;52.798;27.544;2022-11-15T06:38:59;6.8;6;4.8
61879;PMS7003;47817;52.798;27.544;2022-11-15T06:44:45;5;3.5;2.3
61879;PMS7003;47817;52.798;27.544;2022-11-15T06:48:59;8.6;6;5
61879;PMS7003;47817;52.798;27.544;2022-11-15T06:54:31;4.4;4.2;3.2
61879;PMS7003;47817;52.798;27.544;2022-11-15T06:59:17;5.8;4.2;2.8
61879;PMS7003;47817;52.798;27.544;2022-11-15T07:03:59;8.6;6.8;5.2
61879;PMS7003;47817;52.798;27.544;2022-11-15T07:09:21;8.6;6.6;4.6
61879;PMS7003;47817;52.798;27.544;2022-11-15T07:14:29;9;6.6;5.6
61879;PMS7003;47817;52.798;27.544;2022-11-15T07:19:17;8.3;7;5.5
61879;PMS7003;47817;52.798;27.544;2022-11-15T07:24:45;7.6;7;5.6
61879;PMS7003;47817;52.798;27.544;2022-11-15T07:28:59;5.4;5.4;4.2
61879;PMS7003;47817;52.798;27.544;2022-11-15T07:34:45;7.6;7;4.8
61879;PMS7003;47817;52.798;27.544;2022-11-15T07:39:11;6.8;5.8;4.6
61879;PMS7003;47817;52.798;27.544;2022-11-15T07:44:31;6.8;6;5
61879;PMS7003;47817;52.798;27.544;2022-11-15T07:49:35;7;6.6;5
61879;PMS7003;47817;52.798;27.544;2022-11-15T07:53:59;6.6;4.2;2.8
61879;PMS7003;47817;52.798;27.544;2022-11-15T07:59:43;5.5;4.3;3
61879;PMS7003;47817;52.798;27.544;2022-11-15T08:04:07;7.6;6.2;4.2
61879;PMS7003;47817;52.798;27.544;2022-11-15T08:09:31;7.6;5.8;4.8
61879;PMS7003;47817;52.798;27.544;2022-11-15T08:14:07;8.2;5.2;4.4
61879;PMS7003;47817;52.798;27.544;2022-11-15T08:18:59;7.6;5.8;3.8
61879;PMS7003;47817;52.798;27.544;2022-11-15T08:23:59;8;6.6;4.4
61879;PMS7003;47817;52.798;27.544;2022-11-15T08:29:31;5.2;4.4;3.4
61879;PMS7003;47817;52.798;27.544;2022-11-15T08:34:19;6.4;6;4.4
61879;PMS7003;47817;52.798;27.544;2022-11-15T08:39:45;5.4;4.4;3
61879;PMS7003;47817;52.798;27.544;2022-11-15T08:44:09;8;5.3;4.3
61879;PMS7003;47817;52.798;27.544;2022-11-15T08:49:45;5.2;4.4;3.6
61879;PMS7003;47817;52.798;27.544;2022-11-15T08:54:33;6.2;5.4;3.2
61879;PMS7003;47817;52.798;27.544;2022-11-15T08:59:31;7.2;4.8;3.6
61879;PMS7003;47817;52.798;27.544;2022-11-15T09:04:41;6.4;4.8;3.6
61879;PMS7003;47817;52.798;27.544;2022-11-15T09:09:09;7.6;6.6;4.6
61879;PMS7003;47817;52.798;27.544;2022-11-15T09:14:45;8.8;5.3;4
61879;PMS7003;47817;52.798;27.544;2022-11-15T09:19:07;9.2;4.6;4
61879;PMS7003;47817;52.798;27.544;2022-11-15T09:24:11;6.6;6.2;4.4
61879;PMS7003;47817;52.798;27.544;2022-11-15T09:28:59;7.2;4.6;3.8
61879;PMS7003;47817;52.798;27.544;2022-11-15T09:33:59;7.2;5.8;4.6
61879;PMS7003;47817;52.798;27.544;2022-11-15T09:39:21;7.6;5;3.4
61879;PMS7003;47817;52.798;27.544;2022-11-15T09:44:48;9.6;6.8;4.8
61879;PMS7003;47817;52.798;27.544;2022-11-15T09:49:19;7.2;5.6;3.6
61879;PMS7003;47817;52.798;27.544;2022-11-15T09:54:43;7.2;5.4;3.8
61879;PMS7003;47817;52.798;27.544;2022-11-15T09:59:02;6;4.2;2.8
61879;PMS7003;47817;52.798;27.544;2022-11-15T10:04:45;7.8;6.3;4.5
61879;PMS7003;47817;52.798;27.544;2022-11-15T10:09:46;8.4;7.6;4.8
61879;PMS7003;47817;52.798;27.544;2022-11-15T10:14:31;9.8;6;3.8
61879;PMS7003;47817;52.798;27.544;2022-11-15T10:19:34;10.8;8.2;5.2
61879;PMS7003;47817;52.798;27.544;2022-11-15T10:24:10;8.4;6.2;3.8
61879;PMS7003;47817;52.798;27.544;2022-11-15T10:29:43;9.8;7.2;5.2
61879;PMS7003;47817;52.798;27.544;2022-11-15T10:34:20;11;8.2;5.4
61879;PMS7003;47817;52.798;27.544;2022-11-15T10:39:33;7.4;5.8;3.8
61879;PMS7003;47817;52.798;27.544;2022-11-15T10:44:25;7.8;6.6;4.2
61879;PMS7003;47817;52.798;27.544;2022-11-15T10:49:17;6.8;6.3;4
61879;PMS7003;47817;52.798;27.544;2022-11-15T10:54:10;10.6;7.2;4.8
61879;PMS7003;47817;52.798;27.544;2022-11-15T10:59:33;7.8;6.2;4.2
61879;PMS7003;47817;52.798;27.544;2022-11-15T11:04:17;9.8;6.2;4.2
61879;PMS7003;47817;52.798;27.544;2022-11-15T11:09:45;6.8;5;3.8
61879;PMS7003;47817;52.798;27.544;2022-11-15T11:14:11;10.6;7.4;5.4
61879;PMS7003;47817;52.798;27.544;2022-11-15T11:19:37;10.8;9;6
61879;PMS7003;47817;52.798;27.544;2022-11-15T11:24:32;9.4;7;4.4
61879;PMS7003;47817;52.798;27.544;2022-11-15T11:29:26;5.6;4.6;3.6
61879;PMS7003;47817;52.798;27.544;2022-11-15T11:34:45;9;6.8;4.6
61879;PMS7003;47817;52.798;27.544;2022-11-15T11:39:14;11;9.4;6.6
61879;PMS7003;47817;52.798;27.544;2022-11-15T11:44:49;11.8;8.4;5.8
61879;PMS7003;47817;52.798;27.544;2022-11-15T11:49:46;9.4;7;3.6
61879;PMS7003;47817;52.798;27.544;2022-11-15T11:54:53;11.6;8.8;6.2
61879;PMS7003;47817;52.798;27.544;2022-11-15T11:59:22;9;7.6;4.8
61879;PMS7003;47817;52.798;27.544;2022-11-15T12:03:59;13.2;10.2;6.6
61879;PMS7003;47817;52.798;27.544;2022-11-15T12:09:24;15.3;12.5;7.5
61879;PMS7003;47817;52.798;27.544;2022-11-15T12:14:48;7.8;7.4;5.4
61879;PMS7003;47817;52.798;27.544;2022-11-15T12:19:07;11;8.6;5.8
61879;PMS7003;47817;52.798;27.544;2022-11-15T12:24:34;11.2;9.2;6.4
61879;PMS7003;47817;52.798;27.544;2022-11-15T12:29:10;11.6;9.2;6
61879;PMS7003;47817;52.798;27.544;2022-11-15T12:34:48;13.5;12.8;7.5
61879;PMS7003;47817;52.798;27.544;2022-11-15T12:39:21;11.6;9.6;6.6
61879;PMS7003;47817;52.798;27.544;2022-11-15T12:45:00;12.4;9.6;6.4
61879;PMS7003;47817;52.798;27.544;2022-11-15T12:49:42;16.2;13.8;8.2
61879;PMS7003;47817;52.798;27.544;2022-11-15T12:53:59;13;11;7.6
61879;PMS7003;47817;52.798;27.544;2022-11-15T12:59:51;16.4;12;8.6
61879;PMS7003;47817;52.798;27.544;2022-11-15T13:04:43;13.2;10.6;6.6
61879;PMS7003;47817;52.798;27.544;2022-11-15T13:09:50;19.4;14.8;10
61879;PMS7003;47817;52.798;27.544;2022-11-15T13:19:09;19.8;13.6;9.6
61879;PMS7003;47817;52.798;27.544;2022-11-15T13:24:21;19.4;14.4;8.4
61879;PMS7003;47817;52.798;27.544;2022-11-15T13:29:45;14.2;11.4;7.6
61879;PMS7003;47817;52.798;27.544;2022-11-15T13:34:24;8.4;6.8;4.4
61879;PMS7003;47817;52.798;27.544;2022-11-15T13:39:32;14.8;10.2;7.4
61879;PMS7003;47817;52.798;27.544;2022-11-15T13:43:59;22.4;18.6;13.4
61879;PMS7003;47817;52.798;27.544;2022-11-15T13:49:47;21.2;17.2;13.4
61879;PMS7003;47817;52.798;27.544;2022-11-15T13:54:23;18.8;15;9.8
61879;PMS7003;47817;52.798;27.544;2022-11-15T13:59:34;14.2;12.2;8
61879;PMS7003;47817;52.798;27.544;2022-11-15T14:04:23;13;10.4;7.2
61879;PMS7003;47817;52.798;27.544;2022-11-15T14:09:25;23.2;18.4;11.6
61879;PMS7003;47817;52.798;27.544;2022-11-15T14:14:47;17.3;13.5;8.8
61879;PMS7003;47817;52.798;27.544;2022-11-15T14:19:47;21;18;11.2
61879;PMS7003;47817;52.798;27.544;2022-11-15T14:24:46;18;14.2;10.4
61879;PMS7003;47817;52.798;27.544;2022-11-15T14:29:21;20.2;16.2;11.4
61879;PMS7003;47817;52.798;27.544;2022-11-15T14:34:33;13.6;10.8;7
61879;PMS7003;47817;52.798;27.544;2022-11-15T14:39:21;16.3;13.5;9.5
61879;PMS7003;47817;52.798;27.544;2022-11-15T14:44:47;14.4;11.4;8
61879;PMS7003;47817;52.798;27.544;2022-11-15T14:49:19;14.2;12.4;8.6
61879;PMS7003;47817;52.798;27.544;2022-11-15T14:54:33;22.4;17.6;11.4
61879;PMS7003;47817;52.798;27.544;2022-11-15T14:59:00;17.4;14;9.8
61879;PMS7003;47817;52.798;27.544;2022-11-15T15:04:45;17.6;13;8.6
61879;PMS7003;47817;52.798;27.544;2022-11-15T15:09:21;19;16.8;13
61879;PMS7003;47817;52.798;27.544;2022-11-15T15:14:31;13.8;10.5;7.3
61879;PMS7003;47817;52.798;27.544;2022-11-15T15:19:33;18.6;15;10.6
61879;PMS7003;47817;52.798;27.544;2022-11-15T15:24:19;24.2;18;12
61879;PMS7003;47817;52.798;27.544;2022-11-15T15:29:43;17.8;14;9.2
61879;PMS7003;47817;52.798;27.544;2022-11-15T15:34:45;16.6;13;9
61879;PMS7003;47817;52.798;27.544;2022-11-15T15:39:45;16.6;12.4;9.4
61879;PMS7003;47817;52.798;27.544;2022-11-15T15:44:21;21.2;17.6;12
61879;PMS7003;47817;52.798;27.544;2022-11-15T15:49:08;24.4;20;13
61879;PMS7003;47817;52.798;27.544;2022-11-15T15:54:19;25.2;21.2;13.4
61879;PMS7003;47817;52.798;27.544;2022-11-15T15:59:45;25.2;18.6;12.4
61879;PMS7003;47817;52.798;27.544;2022-11-15T16:04:45;19.8;15.2;10
61879;PMS7003;47817;52.798;27.544;2022-11-15T16:09:43;19.8;15.5;11
61879;PMS7003;47817;52.798;27.544;2022-11-15T16:13:59;19.2;16.6;11.2
61879;PMS7003;47817;52.798;27.544;2022-11-15T16:19:09;20.2;16;10
61879;PMS7003;47817;52.798;27.544;2022-11-15T16:24:35;17.8;13.8;10.2
61879;PMS7003;47817;52.798;27.544;2022-11-15T16:29:31;13.4;11.2;7.6
61879;PMS7003;47817;52.798;27.544;2022-11-15T16:34:21;10.8;10;6.8
61879;PMS7003;47817;52.798;27.544;2022-11-15T16:39:10;13.6;11.8;7.8
61879;PMS7003;47817;52.798;27.544;2022-11-15T16:44:09;15.3;11.3;7.3
61879;PMS7003;47817;52.798;27.544;2022-11-15T16:49:23;17.2;13;9.6
61879;PMS7003;47817;52.798;27.544;2022-11-15T16:54:09;13.8;11.6;8
61879;PMS7003;47817;52.798;27.544;2022-11-15T16:59:43;18.4;15;10.8
61879;PMS7003;47817;52.798;27.544;2022-11-15T17:04:09;23.6;19;12.8
61879;PMS7003;47817;52.798;27.544;2022-11-15T17:08:59;15.4;13.4;10.2
61879;PMS7003;47817;52.798;27.544;2022-11-15T17:14:21;17.6;14.8;10.2
61879;PMS7003;47817;52.798;27.544;2022-11-15T17:19:45;17.3;13;9.5
61879;PMS7003;47817;52.798;27.544;2022-11-15T17:24:45;19.6;15.4;10
61879;PMS7003;47817;52.798;27.544;2022-11-15T17:29:09;15.4;12.8;8.6
61879;PMS7003;47817;52.798;27.544;2022-11-15T17:34:00;18.2;14.2;9.8
61879;PMS7003;47817;52.798;27.544;2022-11-15T17:39:35;15.6;13;8.6
61879;PMS7003;47817;52.798;27.544;2022-11-15T17:44:23;16.8;12.6;8.8
61879;PMS7003;47817;52.798;27.544;2022-11-15T17:48:59;18.4;15.4;10
61879;PMS7003;47817;52.798;27.544;2022-11-15T17:53:59;20.6;17;11.4
61879;PMS7003;47817;52.798;27.544;2022-11-15T17:58:59;18.4;16.2;10.8
61879;PMS7003;47817;52.798;27.544;2022-11-15T18:04:29;17.3;13.3;8
61879;PMS7003;47817;52.798;27.544;2022-11-15T18:09:19;11;9;6.8
61879;PMS7003;47817;52.798;27.544;2022-11-15T18:14:47;15;11.4;7.2
61879;PMS7003;47817;52.798;27.544;2022-11-15T18:18:59;11.4;10.4;6.8
61879;PMS7003;47817;52.798;27.544;2022-11-15T18:24:09;14;9.6;6.8
61879;PMS7003;47817;52.798;27.544;2022-11-15T18:29:19;14;10.4;6.6
61879;PMS7003;47817;52.798;27.544;2022-11-15T18:34:47;14.8;12.4;9.2
61879;PMS7003;47817;52.798;27.544;2022-11-15T18:39:45;16;12.8;9.5
61879;PMS7003;47817;52.798;27.544;2022-11-15T18:44:09;13.4;11.8;8.6
61879;PMS7003;47817;52.798;27.544;2022-11-15T18:49:00;13.2;11.2;7.2
61879;PMS7003;47817;52.798;27.544;2022-11-15T18:54:35;15.2;11.6;7
61879;PMS7003;47817;52.798;27.544;2022-11-15T18:59:21;15;10.2;6.4
61879;PMS7003;47817;52.798;27.544;2022-11-15T19:04:19;15.2;11.4;6.8
61879;PMS7003;47817;52.798;27.544;2022-11-15T19:08:59;12.4;9.8;7
61879;PMS7003;47817;52.798;27.544;2022-11-15T19:14:10;17.2;12;7.8
61879;PMS7003;47817;52.798;27.544;2022-11-15T19:19:33;15.6;10.2;6.8
61879;PMS7003;47817;52.798;27.544;2022-11-15T19:24:15;15.8;12;7.5
61879;PMS7003;47817;52.798;27.544;2022-11-15T19:29:47;12.2;11.2;7.4
61879;PMS7003;47817;52.798;27.544;2022-11-15T19:34:00;16.4;13.4;8.8
61879;PMS7003;47817;52.798;27.544;2022-11-15T19:39:10;15.6;12;7.8
61879;PMS7003;47817;52.798;27.544;2022-11-15T19:44:21;14.2;11;8
61879;PMS7003;47817;52.798;27.544;2022-11-15T19:49:47;12.4;10;7
61879;PMS7003;47817;52.798;27.544;2022-11-15T19:54:47;9.2;7;5.2
61879;PMS7003;47817;52.798;27.544;2022-11-15T19:59:09;13.2;8;5.4
61879;PMS7003;47817;52.798;27.544;2022-11-15T20:04:09;10;8;5.4
61879;PMS7003;47817;52.798;27.544;2022-11-15T20:09:21;10.8;7.3;5.5
61879;PMS7003;47817;52.798;27.544;2022-11-15T20:14:35;8.6;7.6;5.2
61879;PMS7003;47817;52.798;27.544;2022-11-15T20:19:19;9;5.8;3.6
61879;PMS7003;47817;52.798;27.544;2022-11-15T20:24:47;8;7;5
61879;PMS7003;47817;52.798;27.544;2022-11-15T20:28:59;8;6.8;4.6
61879;PMS7003;47817;52.798;27.544;2022-11-15T20:34:49;6.5;6.3;4.8
61879;PMS7003;47817;52.798;27.544;2022-11-15T20:39:21;8.8;6.6;5
61879;PMS7003;47817;52.798;27.544;2022-11-15T20:44:47;8.6;6.6;4.8
61879;PMS7003;47817;52.798;27.544;2022-11-15T20:49:09;6.2;4.6;3
61879;PMS7003;47817;52.798;27.544;2022-11-15T20:54:09;11.2;6.2;4.8
61879;PMS7003;47817;52.798;27.544;2022-11-15T20:59:19;25.6;20.8;13.6
61879;PMS7003;47817;52.798;27.544;2022-11-15T21:04:21;70.4;57.6;33.8
61879;PMS7003;47817;52.798;27.544;2022-11-15T21:09:49;17.2;12.8;8.8
61879;PMS7003;47817;52.798;27.544;2022-11-15T21:14:47;10.6;8.2;5.4
61879;PMS7003;47817;52.798;27.544;2022-11-15T21:19:21;11.8;9.2;6.2
61879;PMS7003;47817;52.798;27.544;2022-11-15T21:24:35;11.4;7.6;4.8
61879;PMS7003;47817;52.798;27.544;2022-11-15T21:29:31;8.5;7;4.8
61879;PMS7003;47817;52.798;27.544;2022-11-15T21:34:19;10.4;7.8;5
61879;PMS7003;47817;52.798;27.544;2022-11-15T21:39:47;8;7.8;5.4
61879;PMS7003;47817;52.798;27.544;2022-11-15T21:44:33;10.8;7.8;5.6
61879;PMS7003;47817;52.798;27.544;2022-11-15T21:49:35;7.2;5.8;4.2
61879;PMS7003;47817;52.798;27.544;2022-11-15T21:54:19;10.6;8.2;5.2
61879;PMS7003;47817;52.798;27.544;2022-11-15T21:59:43;7;6.4;5
61879;PMS7003;47817;52.798;27.544;2022-11-15T22:04:27;8;5.8;4
61879;PMS7003;47817;52.798;27.544;2022-11-15T22:09:06;8.4;5;3.6
61879;PMS7003;47817;52.798;27.544;2022-11-15T22:14:29;8.2;6;3.8
61879;PMS7003;47817;52.798;27.544;2022-11-15T22:19:31;7.2;5.4;3.4
61879;PMS7003;47817;52.798;27.544;2022-11-15T22:24:43;7.8;6.4;4.2
61879;PMS7003;47817;52.798;27.544;2022-11-15T22:29:41;9.2;6;3.8
61879;PMS7003;47817;52.798;27.544;2022-11-15T22:33:59;9.2;6.6;4.2
61879;PMS7003;47817;52.798;27.544;2022-11-15T22:39:31;6;5.5;4
61879;PMS7003;47817;52.798;27.544;2022-11-15T22:44:29;8.4;5.6;3.4
61879;PMS7003;47817;52.798;27.544;2022-11-15T22:49:17;8.6;5.8;4
61879;PMS7003;47817;52.798;27.544;2022-11-15T22:54:43;8;5.6;3
61879;PMS7003;47817;52.798;27.544;2022-11-15T22:59:05;8.2;5.2;2.6
61879;PMS7003;47817;52.798;27.544;2022-11-15T23:04:43;6;4.6;3.4
61879;PMS7003;47817;52.798;27.544;2022-11-15T23:09:06;5.8;4.6;3
61879;PMS7003;47817;52.798;27.544;2022-11-15T23:14:43;6;5.4;3.8
61879;PMS7003;47817;52.798;27.544;2022-11-15T23:19:17;5.8;4.6;2.6
61879;PMS7003;47817;52.798;27.544;2022-11-15T23:24:06;7.6;5;3.6
61879;PMS7003;47817;52.798;27.544;2022-11-15T23:29:29;6.6;5.4;2.8
61879;PMS7003;47817;52.798;27.544;2022-11-15T23:34:33;5.5;5;3.3
61879;PMS7003;47817;52.798;27.544;2022-11-15T23:39:43;5.6;5.2;3.6
61879;PMS7003;47817;52.798;27.544;2022-11-15T23:44:46;6.2;4.6;3
61879;PMS7003;47817;52.798;27.544;2022-11-15T23:49:05;5.4;3.8;2.6
61879;PMS7003;47817;52.798;27.544;2022-11-15T23:54:31;6.8;4.6;2.8
61879;PMS7003;47817;52.798;27.544;2022-11-15T23:59:29;7;5.6;2.8
